Time;durP1;ratioP1;P1;durP2;ratioP2;P2;SDS_P1;SDS_P2;PMS_P1;PMS_P2;Temp;Humidity;BMP_temperature;BMP_pressure;BME280_temperature;BME280_humidity;BME280_pressure;Samples;Min_cycle;Max_cycle;Signal;HPM_P1;HPM_P2
2023/07/09 00:00:43;;;;;;;3.10;2.83;;;;;;;;;;6188719;23;20297;-81
2023/07/09 00:03:12;;;;;;;2.65;2.45;;;;;;;;;;6189001;23;20709;-81
2023/07/09 00:05:39;;;;;;;2.55;2.35;;;;;;;;;;6189098;23;20198;-82
2023/07/09 00:08:26;;;;;;;2.92;2.72;;;;;;;;;;6189560;23;20571;-82
2023/07/09 00:10:53;;;;;;;2.75;2.55;;;;;;;;;;6188424;23;20198;-82
2023/07/09 00:13:22;;;;;;;2.95;2.75;;;;;;;;;;6188635;23;20174;-81
2023/07/09 00:15:49;;;;;;;2.97;2.67;;;;;;;;;;6189165;23;20253;-81
2023/07/09 00:18:17;;;;;;;3.78;3.08;;;;;;;;;;6188821;23;20174;-82
2023/07/09 00:20:48;;;;;;;2.72;2.53;;;;;;;;;;6188684;23;20230;-82
2023/07/09 00:23:19;;;;;;;2.75;2.55;;;;;;;;;;6188467;23;20159;-82
2023/07/09 00:25:47;;;;;;;2.53;2.33;;;;;;;;;;6187814;23;20194;-84
2023/07/09 00:28:15;;;;;;;2.80;2.60;;;;;;;;;;6188730;23;20205;-84
2023/07/09 00:30:43;;;;;;;3.42;3.10;;;;;;;;;;6187974;23;20274;-84
2023/07/09 00:33:14;;;;;;;3.15;2.65;;;;;;;;;;6187872;23;20201;-83
2023/07/09 00:35:42;;;;;;;2.50;2.15;;;;;;;;;;6189088;23;20151;-81
2023/07/09 00:38:19;;;;;;;2.97;2.70;;;;;;;;;;6188623;23;20578;-81
2023/07/09 00:40:49;;;;;;;3.03;2.70;;;;;;;;;;6188164;23;20229;-81
2023/07/09 00:43:18;;;;;;;3.53;3.22;;;;;;;;;;6189328;23;20178;-84
2023/07/09 00:46:05;;;;;;;3.50;3.10;;;;;;;;;;6188169;23;20257;-83
2023/07/09 00:48:33;;;;;;;3.25;2.95;;;;;;;;;;6188594;23;20241;-83
2023/07/09 00:51:00;;;;;;;3.47;2.63;;;;;;;;;;6188068;23;20200;-83
2023/07/09 00:53:31;;;;;;;2.50;2.30;;;;;;;;;;6188087;23;20614;-83
2023/07/09 00:56:04;;;;;;;2.42;2.20;;;;;;;;;;6188372;23;20210;-84
2023/07/09 00:58:35;;;;;;;2.40;2.20;;;;;;;;;;6188257;23;20183;-84
2023/07/09 01:01:07;;;;;;;2.70;2.50;;;;;;;;;;6188586;23;20195;-83
2023/07/09 01:03:40;;;;;;;2.70;2.47;;;;;;;;;;6188150;23;20184;-82
2023/07/09 01:06:08;;;;;;;3.25;2.67;;;;;;;;;;6187805;23;20163;-83
2023/07/09 01:08:41;;;;;;;3.20;2.90;;;;;;;;;;6187030;23;20226;-84
2023/07/09 01:11:20;;;;;;;3.22;2.67;;;;;;;;;;6187677;23;20282;-84
2023/07/09 01:13:50;;;;;;;3.15;2.95;;;;;;;;;;6186173;23;20162;-83
2023/07/09 01:16:18;;;;;;;3.20;2.90;;;;;;;;;;6186825;23;20174;-84
2023/07/09 01:18:46;;;;;;;3.42;3.13;;;;;;;;;;6187308;23;20652;-82
2023/07/09 01:21:16;;;;;;;2.65;2.45;;;;;;;;;;6187018;23;20201;-85
2023/07/09 01:23:44;;;;;;;2.95;2.65;;;;;;;;;;6188058;23;20159;-84
2023/07/09 01:26:13;;;;;;;3.33;3.03;;;;;;;;;;6188128;23;20253;-83
2023/07/09 01:28:43;;;;;;;2.72;2.50;;;;;;;;;;6187842;23;20198;-84
2023/07/09 01:31:11;;;;;;;3.08;2.67;;;;;;;;;;6187416;23;20232;-84
2023/07/09 01:33:39;;;;;;;2.90;2.60;;;;;;;;;;6187932;23;20178;-82
2023/07/09 01:36:07;;;;;;;2.72;2.53;;;;;;;;;;6187288;23;20194;-83
2023/07/09 01:38:36;;;;;;;4.13;3.72;;;;;;;;;;6188494;23;20517;-83
2023/07/09 01:41:04;;;;;;;3.38;3.08;;;;;;;;;;6187247;23;20285;-83
2023/07/09 01:43:34;;;;;;;3.22;2.92;;;;;;;;;;6188087;23;20213;-84
2023/07/09 01:46:02;;;;;;;3.05;2.78;;;;;;;;;;6188157;23;20260;-82
2023/07/09 01:48:29;;;;;;;3.55;2.90;;;;;;;;;;6187344;23;20258;-82
2023/07/09 01:50:57;;;;;;;3.35;2.78;;;;;;;;;;6187359;23;20226;-81
2023/07/09 01:53:27;;;;;;;3.35;3.05;;;;;;;;;;6187507;23;20179;-83
2023/07/09 01:55:56;;;;;;;3.30;3.00;;;;;;;;;;6187688;23;20289;-81
2023/07/09 01:58:25;;;;;;;3.60;3.30;;;;;;;;;;6186579;23;20209;-84
2023/07/09 02:00:52;;;;;;;2.70;2.50;;;;;;;;;;6187697;23;20194;-80
2023/07/09 02:03:20;;;;;;;3.25;2.95;;;;;;;;;;6187552;23;20232;-84
2023/07/09 02:05:47;;;;;;;2.55;2.35;;;;;;;;;;6186555;23;20206;-84
2023/07/09 02:08:15;;;;;;;3.08;2.78;;;;;;;;;;6187386;23;20209;-82
2023/07/09 02:10:45;;;;;;;2.97;2.78;;;;;;;;;;6186797;23;20233;-81
2023/07/09 02:13:14;;;;;;;3.10;2.90;;;;;;;;;;6186696;23;20197;-83
2023/07/09 02:15:43;;;;;;;2.83;2.63;;;;;;;;;;6186900;23;20178;-81
2023/07/09 02:18:10;;;;;;;4.25;3.53;;;;;;;;;;6187510;23;20180;-84
2023/07/09 02:20:38;;;;;;;2.80;2.60;;;;;;;;;;6187772;23;20250;-84
2023/07/09 02:23:06;;;;;;;2.92;2.72;;;;;;;;;;6186839;23;20174;-83
2023/07/09 02:25:33;;;;;;;3.22;2.88;;;;;;;;;;6189337;23;20284;-83
2023/07/09 02:28:01;;;;;;;2.95;2.75;;;;;;;;;;6190271;23;20564;-82
2023/07/09 02:30:30;;;;;;;3.83;2.95;;;;;;;;;;6188948;23;20237;-83
2023/07/09 02:32:57;;;;;;;3.53;3.22;;;;;;;;;;6189322;23;20194;-83
2023/07/09 02:35:25;;;;;;;2.97;2.75;;;;;;;;;;6189722;23;20608;-81
2023/07/09 02:37:52;;;;;;;3.17;2.97;;;;;;;;;;6190350;23;20721;-80
2023/07/09 02:40:20;;;;;;;3.13;2.83;;;;;;;;;;6190729;23;20229;-82
2023/07/09 02:42:47;;;;;;;2.85;2.60;;;;;;;;;;6189597;23;20174;-83
2023/07/09 02:45:15;;;;;;;2.70;2.50;;;;;;;;;;6189070;23;20665;-80
2023/07/09 02:47:43;;;;;;;2.70;2.50;;;;;;;;;;6189881;23;20555;-80
2023/07/09 02:50:11;;;;;;;2.95;2.75;;;;;;;;;;6189874;23;20700;-81
2023/07/09 02:52:39;;;;;;;3.00;2.80;;;;;;;;;;6188738;23;20507;-80
2023/07/09 02:55:07;;;;;;;2.80;2.60;;;;;;;;;;6189287;23;20210;-83
2023/07/09 02:57:35;;;;;;;2.97;2.75;;;;;;;;;;6189701;23;20181;-83
2023/07/09 03:00:07;;;;;;;3.38;3.08;;;;;;;;;;6188301;23;20194;-82
2023/07/09 03:02:35;;;;;;;2.60;2.40;;;;;;;;;;6190486;23;20241;-82
2023/07/09 03:05:04;;;;;;;3.63;2.92;;;;;;;;;;6190646;23;20185;-82
2023/07/09 03:07:32;;;;;;;2.60;2.40;;;;;;;;;;6186027;23;20257;-80
2023/07/09 03:09:59;;;;;;;3.15;2.22;;;;;;;;;;6183203;23;20230;-80
2023/07/09 03:12:27;;;;;;;2.90;2.40;;;;;;;;;;6183907;23;20209;-80
2023/07/09 03:14:54;;;;;;;2.95;2.63;;;;;;;;;;6184178;23;20824;-81
2023/07/09 03:17:21;;;;;;;2.42;2.22;;;;;;;;;;6184255;23;20205;-82
2023/07/09 03:19:49;;;;;;;2.65;2.45;;;;;;;;;;6184127;23;20206;-80
2023/07/09 03:22:18;;;;;;;3.15;2.85;;;;;;;;;;6182802;23;20206;-83
2023/07/09 03:24:45;;;;;;;2.63;2.42;;;;;;;;;;6183572;23;20257;-79
2023/07/09 03:27:13;;;;;;;3.22;2.92;;;;;;;;;;6183897;23;20178;-79
2023/07/09 03:29:40;;;;;;;2.80;2.53;;;;;;;;;;6182321;23;20187;-79
2023/07/09 03:32:08;;;;;;;9.73;3.30;;;;;;;;;;6182737;23;20233;-79
2023/07/09 03:34:36;;;;;;;2.97;2.75;;;;;;;;;;6185633;23;20945;-83
2023/07/09 03:37:04;;;;;;;2.95;2.75;;;;;;;;;;6183834;23;20586;-81
2023/07/09 03:39:32;;;;;;;2.58;2.38;;;;;;;;;;6183393;23;20189;-83
2023/07/09 03:42:00;;;;;;;2.45;2.25;;;;;;;;;;6184017;23;20226;-80
2023/07/09 03:44:27;;;;;;;2.42;2.22;;;;;;;;;;6183124;23;20579;-80
2023/07/09 03:46:55;;;;;;;3.25;2.95;;;;;;;;;;6183223;23;20288;-81
2023/07/09 03:49:22;;;;;;;2.00;1.90;;;;;;;;;;6183407;23;20622;-81
2023/07/09 03:51:50;;;;;;;2.22;2.03;;;;;;;;;;6183455;23;20206;-80
2023/07/09 03:54:17;;;;;;;2.00;1.90;;;;;;;;;;6183435;23;20210;-80
2023/07/09 03:56:46;;;;;;;2.58;2.38;;;;;;;;;;6184281;23;20232;-80
2023/07/09 03:59:13;;;;;;;1.98;1.88;;;;;;;;;;6184557;23;20551;-80
2023/07/09 04:01:45;;;;;;;2.50;2.30;;;;;;;;;;6183170;23;20237;-81
2023/07/09 04:04:13;;;;;;;2.15;2.03;;;;;;;;;;6184861;23;20167;-82
2023/07/09 04:06:41;;;;;;;2.45;2.25;;;;;;;;;;6184152;23;20229;-81
2023/07/09 04:09:08;;;;;;;2.38;2.17;;;;;;;;;;6184128;23;20253;-80
2023/07/09 04:11:36;;;;;;;2.67;2.47;;;;;;;;;;6182757;23;20198;-81
2023/07/09 04:14:07;;;;;;;2.58;2.38;;;;;;;;;;6182839;23;20189;-81
2023/07/09 04:16:34;;;;;;;2.35;2.15;;;;;;;;;;6183487;23;20166;-80
2023/07/09 04:19:02;;;;;;;2.67;2.47;;;;;;;;;;6183363;23;20945;-81
2023/07/09 04:21:29;;;;;;;2.50;2.30;;;;;;;;;;6183773;23;20194;-82
2023/07/09 04:23:57;;;;;;;3.00;2.70;;;;;;;;;;6183306;23;20245;-81
2023/07/09 04:26:24;;;;;;;3.50;3.20;;;;;;;;;;6183169;23;20234;-80
2023/07/09 04:28:52;;;;;;;2.80;2.60;;;;;;;;;;6183206;23;20217;-83
2023/07/09 04:31:20;;;;;;;3.13;2.83;;;;;;;;;;6183103;23;20237;-79
2023/07/09 04:33:48;;;;;;;2.72;2.53;;;;;;;;;;6182892;23;20568;-81
2023/07/09 04:36:15;;;;;;;2.97;2.78;;;;;;;;;;6183164;23;20206;-82
2023/07/09 04:38:43;;;;;;;3.00;2.70;;;;;;;;;;6182692;23;20221;-81
2023/07/09 04:41:10;;;;;;;2.50;2.30;;;;;;;;;;6182653;23;20228;-82
2023/07/09 04:43:38;;;;;;;3.38;3.00;;;;;;;;;;6181798;23;20185;-82
2023/07/09 04:46:05;;;;;;;4.40;3.42;;;;;;;;;;6182079;23;20274;-82
2023/07/09 04:48:34;;;;;;;3.63;3.22;;;;;;;;;;6182905;23;20584;-81
2023/07/09 04:51:01;;;;;;;3.45;3.15;;;;;;;;;;6183038;23;20241;-82
2023/07/09 04:53:29;;;;;;;3.58;3.28;;;;;;;;;;6181976;23;20575;-80
2023/07/09 04:55:57;;;;;;;3.58;3.28;;;;;;;;;;6182500;23;20222;-81
2023/07/09 04:58:24;;;;;;;3.15;2.85;;;;;;;;;;6182884;23;20181;-83
2023/07/09 05:00:52;;;;;;;2.90;2.70;;;;;;;;;;6184608;23;20816;-81
2023/07/09 05:03:20;;;;;;;3.28;3.05;;;;;;;;;;6183386;23;20210;-81
2023/07/09 05:05:50;;;;;;;3.30;2.63;;;;;;;;;;6184194;23;20258;-82
2023/07/09 05:08:17;;;;;;;3.75;3.38;;;;;;;;;;6186294;23;20178;-82
2023/07/09 05:10:46;;;;;;;2.88;2.67;;;;;;;;;;6187485;23;20219;-79
2023/07/09 05:13:14;;;;;;;3.28;3.03;;;;;;;;;;6188896;23;20557;-80
2023/07/09 05:15:44;;;;;;;3.22;3.03;;;;;;;;;;6188944;23;20213;-81
2023/07/09 05:18:12;;;;;;;3.08;2.78;;;;;;;;;;6188374;23;20626;-81
2023/07/09 05:20:40;;;;;;;3.15;2.85;;;;;;;;;;6189411;23;20198;-81
2023/07/09 05:23:10;;;;;;;2.80;2.60;;;;;;;;;;6188568;23;20258;-80
2023/07/09 05:25:37;;;;;;;3.60;3.25;;;;;;;;;;6187696;23;20575;-81
2023/07/09 05:28:06;;;;;;;2.80;2.60;;;;;;;;;;6188860;23;20238;-82
2023/07/09 05:30:34;;;;;;;3.55;3.25;;;;;;;;;;6188441;23;20281;-80
2023/07/09 05:33:01;;;;;;;3.88;3.50;;;;;;;;;;6188810;23;20213;-83
2023/07/09 05:35:29;;;;;;;4.43;3.97;;;;;;;;;;6188710;23;20206;-82
2023/07/09 05:37:57;;;;;;;3.85;3.55;;;;;;;;;;6187467;23;20570;-83
2023/07/09 05:40:26;;;;;;;3.83;3.50;;;;;;;;;;6187114;23;20226;-85
2023/07/09 05:42:53;;;;;;;3.63;3.33;;;;;;;;;;6188918;23;20515;-85
2023/07/09 05:45:20;;;;;;;4.07;3.67;;;;;;;;;;6188464;23;20254;-85
2023/07/09 05:47:48;;;;;;;6.20;3.75;;;;;;;;;;6188956;23;20670;-83
2023/07/09 05:50:15;;;;;;;4.40;4.00;;;;;;;;;;6188316;23;20281;-84
2023/07/09 05:52:43;;;;;;;5.20;4.75;;;;;;;;;;6188681;23;20610;-85
2023/07/09 05:55:11;;;;;;;5.28;4.78;;;;;;;;;;6189157;23;20222;-83
2023/07/09 05:57:39;;;;;;;4.80;4.40;;;;;;;;;;6187839;23;20201;-85
2023/07/09 06:00:09;;;;;;;4.28;3.92;;;;;;;;;;6190649;23;20276;-86
2023/07/09 06:02:36;;;;;;;4.25;3.95;;;;;;;;;;6189045;23;20249;-84
2023/07/09 06:05:04;;;;;;;4.43;4.07;;;;;;;;;;6190600;23;20236;-84
2023/07/09 06:07:31;;;;;;;4.60;4.13;;;;;;;;;;6189535;23;20178;-84
2023/07/09 06:09:59;;;;;;;4.32;3.97;;;;;;;;;;6188980;23;20285;-85
2023/07/09 06:12:26;;;;;;;5.15;4.22;;;;;;;;;;6189484;23;20599;-85
2023/07/09 06:14:55;;;;;;;3.80;3.50;;;;;;;;;;6188960;23;20650;-83
2023/07/09 06:17:23;;;;;;;5.00;4.05;;;;;;;;;;6190946;23;20601;-83
2023/07/09 06:19:50;;;;;;;4.15;3.75;;;;;;;;;;6190593;23;20205;-83
2023/07/09 06:22:18;;;;;;;5.47;4.43;;;;;;;;;;6190206;23;20597;-85
2023/07/09 06:24:46;;;;;;;4.93;4.50;;;;;;;;;;6190055;23;20214;-84
2023/07/09 06:27:14;;;;;;;5.20;4.28;;;;;;;;;;6189833;23;20209;-83
2023/07/09 06:29:41;;;;;;;4.47;4.07;;;;;;;;;;6188704;23;20566;-85
2023/07/09 06:32:10;;;;;;;4.63;4.22;;;;;;;;;;6187881;23;20217;-83
2023/07/09 06:34:38;;;;;;;4.97;4.47;;;;;;;;;;6188175;23;20178;-84
2023/07/09 06:37:05;;;;;;;4.72;4.32;;;;;;;;;;6187074;23;20206;-84
2023/07/09 06:39:33;;;;;;;4.40;4.00;;;;;;;;;;6187186;23;20186;-84
2023/07/09 06:42:00;;;;;;;4.47;4.05;;;;;;;;;;6187661;23;20274;-84
2023/07/09 06:44:28;;;;;;;4.90;4.50;;;;;;;;;;6188410;23;20210;-85
2023/07/09 06:46:55;;;;;;;3.00;2.80;;;;;;;;;;6189880;23;20201;-86
2023/07/09 06:49:24;;;;;;;5.15;4.38;;;;;;;;;;6189647;23;20265;-85
2023/07/09 06:51:52;;;;;;;4.55;4.15;;;;;;;;;;6189688;23;20202;-85
2023/07/09 06:54:19;;;;;;;3.58;3.35;;;;;;;;;;6189037;23;20554;-86
2023/07/09 06:56:47;;;;;;;5.40;4.90;;;;;;;;;;6190045;23;20254;-84
2023/07/09 06:59:14;;;;;;;4.57;4.22;;;;;;;;;;6189261;23;20483;-85
2023/07/09 07:01:42;;;;;;;3.50;3.20;;;;;;;;;;6190599;23;20665;-84
2023/07/09 07:04:10;;;;;;;4.30;3.92;;;;;;;;;;6190269;23;20262;-83
2023/07/09 07:06:38;;;;;;;4.38;3.97;;;;;;;;;;6189679;23;20262;-84
2023/07/09 07:09:06;;;;;;;3.50;3.30;;;;;;;;;;6187742;23;20174;-85
2023/07/09 07:11:33;;;;;;;4.78;4.20;;;;;;;;;;6189006;23;20281;-85
2023/07/09 07:14:01;;;;;;;6.28;5.22;;;;;;;;;;6190062;23;20281;-84
2023/07/09 07:16:28;;;;;;;4.95;4.55;;;;;;;;;;6188993;23;20257;-86
2023/07/09 07:18:56;;;;;;;4.90;4.50;;;;;;;;;;6190994;23;20185;-85
2023/07/09 07:21:23;;;;;;;5.15;4.65;;;;;;;;;;6188232;23;20277;-83
2023/07/09 07:23:52;;;;;;;4.57;4.18;;;;;;;;;;6189021;23;20202;-86
2023/07/09 07:26:20;;;;;;;4.47;4.07;;;;;;;;;;6189677;23;20219;-84
2023/07/09 07:28:48;;;;;;;4.85;4.35;;;;;;;;;;6188669;23;20512;-84
2023/07/09 07:31:15;;;;;;;4.05;3.75;;;;;;;;;;6187727;23;20595;-85
2023/07/09 07:33:43;;;;;;;4.70;4.03;;;;;;;;;;6189550;23;20229;-84
2023/07/09 07:36:11;;;;;;;5.15;4.57;;;;;;;;;;6188519;23;20257;-84
2023/07/09 07:38:39;;;;;;;3.78;3.47;;;;;;;;;;6189382;23;20202;-84
2023/07/09 07:41:08;;;;;;;5.05;4.53;;;;;;;;;;6188844;23;20735;-85
2023/07/09 07:43:36;;;;;;;4.25;3.90;;;;;;;;;;6190049;23;20257;-86
2023/07/09 07:46:03;;;;;;;4.15;3.85;;;;;;;;;;6189435;23;20206;-83
2023/07/09 07:48:31;;;;;;;5.75;5.25;;;;;;;;;;6189647;23;20214;-86
2023/07/09 07:51:01;;;;;;;4.45;4.10;;;;;;;;;;6188147;23;20222;-85
2023/07/09 07:53:30;;;;;;;5.03;4.53;;;;;;;;;;6187066;23;20202;-85
2023/07/09 07:55:57;;;;;;;4.32;3.97;;;;;;;;;;6187583;23;20182;-83
2023/07/09 07:58:26;;;;;;;4.95;4.53;;;;;;;;;;6188410;23;20257;-86
2023/07/09 08:00:57;;;;;;;5.20;4.78;;;;;;;;;;6189438;23;20253;-83
2023/07/09 08:03:24;;;;;;;4.63;4.15;;;;;;;;;;6188206;23;20189;-84
2023/07/09 08:05:53;;;;;;;5.47;4.43;;;;;;;;;;6187837;23;20209;-85
2023/07/09 08:08:20;;;;;;;5.95;4.93;;;;;;;;;;6188000;23;20622;-85
2023/07/09 08:10:48;;;;;;;4.00;3.70;;;;;;;;;;6186995;23;20198;-83
2023/07/09 08:13:15;;;;;;;5.78;4.85;;;;;;;;;;6189330;23;20193;-82
2023/07/09 08:15:44;;;;;;;5.13;4.72;;;;;;;;;;6187513;23;20206;-84
2023/07/09 08:18:12;;;;;;;6.47;5.80;;;;;;;;;;6186764;23;20178;-84
2023/07/09 08:20:43;;;;;;;6.80;5.20;;;;;;;;;;6187185;23;20229;-84
2023/07/09 08:23:10;;;;;;;5.43;4.93;;;;;;;;;;6188738;23;20214;-83
2023/07/09 08:25:38;;;;;;;3.97;3.67;;;;;;;;;;6186883;23;20197;-83
2023/07/09 08:28:06;;;;;;;4.70;4.30;;;;;;;;;;6188108;23;20185;-85
2023/07/09 08:30:33;;;;;;;5.13;4.68;;;;;;;;;;6187509;23;20233;-86
2023/07/09 08:33:02;;;;;;;5.43;4.93;;;;;;;;;;6188584;23;20229;-85
2023/07/09 08:35:32;;;;;;;4.18;3.53;;;;;;;;;;6187710;23;20202;-84
2023/07/09 08:37:59;;;;;;;5.03;4.63;;;;;;;;;;6187633;23;20582;-85
2023/07/09 08:40:26;;;;;;;4.32;3.92;;;;;;;;;;6187281;23;20226;-83
2023/07/09 08:43:01;;;;;;;5.03;4.63;;;;;;;;;;6188382;23;20664;-83
2023/07/09 08:45:39;;;;;;;5.07;4.47;;;;;;;;;;6188130;23;20544;-83
2023/07/09 08:48:13;;;;;;;5.50;4.70;;;;;;;;;;6187020;23;20241;-83
2023/07/09 08:50:44;;;;;;;4.50;4.07;;;;;;;;;;6188235;23;20269;-84
2023/07/09 08:53:19;;;;;;;5.45;4.95;;;;;;;;;;6187766;23;20206;-85
2023/07/09 08:55:47;;;;;;;5.60;5.10;;;;;;;;;;6188603;23;20186;-85
2023/07/09 08:58:26;;;;;;;5.28;4.88;;;;;;;;;;6187873;23;20209;-85
2023/07/09 09:00:56;;;;;;;7.05;5.57;;;;;;;;;;6188316;23;20872;-84
2023/07/09 09:03:39;;;;;;;4.95;4.45;;;;;;;;;;6188151;23;20253;-85
2023/07/09 09:06:13;;;;;;;5.40;4.95;;;;;;;;;;6189072;23;20163;-83
2023/07/09 09:08:45;;;;;;;8.05;5.95;;;;;;;;;;6187833;23;20157;-85
2023/07/09 09:11:21;;;;;;;4.93;4.53;;;;;;;;;;6186519;23;20592;-85
2023/07/09 09:13:50;;;;;;;6.22;5.47;;;;;;;;;;6187692;23;20695;-84
2023/07/09 09:16:25;;;;;;;6.40;5.80;;;;;;;;;;6187436;23;20260;-85
2023/07/09 09:18:58;;;;;;;5.03;4.57;;;;;;;;;;6187357;23;20190;-85
2023/07/09 09:21:31;;;;;;;5.70;5.20;;;;;;;;;;6186618;23;20249;-85
2023/07/09 09:24:04;;;;;;;4.95;4.55;;;;;;;;;;6186379;23;20241;-84
2023/07/09 09:26:35;;;;;;;5.57;5.00;;;;;;;;;;6186694;23;20192;-85
2023/07/09 09:29:11;;;;;;;5.55;5.07;;;;;;;;;;6188095;23;20571;-85
2023/07/09 09:31:38;;;;;;;5.93;5.43;;;;;;;;;;6187122;23;20272;-85
2023/07/09 09:34:07;;;;;;;5.57;5.10;;;;;;;;;;6186384;23;20229;-85
2023/07/09 09:36:38;;;;;;;7.28;6.57;;;;;;;;;;6184966;23;20641;-84
2023/07/09 09:39:06;;;;;;;5.97;5.40;;;;;;;;;;6187005;23;20206;-85
2023/07/09 09:41:36;;;;;;;6.28;5.68;;;;;;;;;;6186539;23;20684;-84
2023/07/09 09:44:05;;;;;;;5.57;5.07;;;;;;;;;;6185718;23;20658;-84
2023/07/09 09:46:34;;;;;;;6.18;5.57;;;;;;;;;;6186340;23;20629;-85
2023/07/09 09:49:04;;;;;;;5.43;5.00;;;;;;;;;;6185190;23;20256;-85
2023/07/09 09:51:36;;;;;;;5.53;5.03;;;;;;;;;;6185067;23;20676;-83
2023/07/09 09:54:16;;;;;;;5.88;5.43;;;;;;;;;;6184809;23;20178;-84
2023/07/09 09:56:44;;;;;;;5.25;4.85;;;;;;;;;;6185595;23;20240;-85
2023/07/09 09:59:21;;;;;;;5.30;4.90;;;;;;;;;;6185712;23;20258;-85
2023/07/09 10:01:56;;;;;;;5.80;5.10;;;;;;;;;;6185840;23;20201;-85
2023/07/09 10:04:24;;;;;;;5.72;5.25;;;;;;;;;;6186136;23;20238;-84
2023/07/09 10:06:56;;;;;;;5.97;5.47;;;;;;;;;;6185752;23;20201;-85
2023/07/09 10:09:32;;;;;;;5.28;4.88;;;;;;;;;;6185308;23;20241;-84
2023/07/09 10:12:05;;;;;;;5.68;5.28;;;;;;;;;;6185472;23;20281;-86
2023/07/09 10:14:39;;;;;;;5.90;5.32;;;;;;;;;;6185660;23;20630;-85
2023/07/09 10:17:19;;;;;;;4.97;4.63;;;;;;;;;;6185208;23;20260;-84
2023/07/09 10:19:54;;;;;;;5.85;5.32;;;;;;;;;;6184968;23;20237;-84
2023/07/09 10:22:49;;;;;;;5.32;4.85;;;;;;;;;;6185317;23;20189;-84
2023/07/09 10:25:37;;;;;;;5.50;5.03;;;;;;;;;;6181594;23;20205;-85
2023/07/09 10:28:33;;;;;;;5.45;5.05;;;;;;;;;;6184665;23;20640;-85
2023/07/09 10:31:08;;;;;;;4.93;4.53;;;;;;;;;;6185540;23;20225;-85
2023/07/09 10:34:00;;;;;;;6.15;5.60;;;;;;;;;;6185162;23;20166;-84
2023/07/09 10:37:00;;;;;;;5.90;5.38;;;;;;;;;;6186068;23;20264;-84
2023/07/09 10:39:38;;;;;;;5.80;5.40;;;;;;;;;;6186357;23;20265;-84
2023/07/09 10:42:22;;;;;;;6.97;6.22;;;;;;;;;;6186837;23;20559;-84
2023/07/09 10:44:57;;;;;;;6.22;5.72;;;;;;;;;;6186193;23;20196;-84
2023/07/09 10:47:33;;;;;;;6.00;5.50;;;;;;;;;;6187657;23;20551;-84
2023/07/09 10:50:01;;;;;;;6.60;5.88;;;;;;;;;;6188787;23;20276;-84
2023/07/09 10:52:34;;;;;;;5.47;5.07;;;;;;;;;;6187180;23;20201;-85
2023/07/09 10:55:06;;;;;;;6.15;5.10;;;;;;;;;;6186293;23;20194;-85
2023/07/09 10:57:43;;;;;;;6.53;6.03;;;;;;;;;;6187514;23;20245;-84
2023/07/09 11:00:16;;;;;;;5.80;5.30;;;;;;;;;;6186486;23;20273;-84
2023/07/09 11:02:44;;;;;;;5.57;5.15;;;;;;;;;;6186506;23;20188;-85
2023/07/09 11:05:12;;;;;;;4.25;3.95;;;;;;;;;;6186616;23;20192;-86
2023/07/09 11:07:44;;;;;;;4.95;4.55;;;;;;;;;;6186821;23;20212;-84
2023/07/09 11:10:23;;;;;;;4.65;4.25;;;;;;;;;;6185877;23;20721;-86
2023/07/09 11:12:58;;;;;;;6.32;3.97;;;;;;;;;;6186269;23;20216;-86
2023/07/09 11:15:32;;;;;;;4.32;4.03;;;;;;;;;;6185541;23;20260;-85
2023/07/09 11:18:00;;;;;;;7.13;4.15;;;;;;;;;;6186083;23;20240;-85
2023/07/09 11:20:34;;;;;;;5.68;4.53;;;;;;;;;;6186100;23;20221;-84
2023/07/09 11:23:05;;;;;;;6.20;5.57;;;;;;;;;;6186393;23;20168;-85
2023/07/09 11:25:46;;;;;;;5.47;4.88;;;;;;;;;;6186005;23;20159;-84
2023/07/09 11:28:13;;;;;;;5.70;5.15;;;;;;;;;;6186155;23;20531;-85
2023/07/09 11:30:50;;;;;;;6.05;4.10;;;;;;;;;;6185254;23;20269;-86
2023/07/09 11:33:20;;;;;;;4.78;3.60;;;;;;;;;;6186796;23;20287;-85
2023/07/09 11:35:50;;;;;;;4.20;3.90;;;;;;;;;;6186443;23;20276;-85
2023/07/09 11:38:20;;;;;;;4.60;4.20;;;;;;;;;;6186204;23;20653;-85
2023/07/09 11:40:51;;;;;;;5.18;4.72;;;;;;;;;;6186484;23;20201;-85
2023/07/09 11:43:32;;;;;;;5.28;4.78;;;;;;;;;;6185514;23;20194;-86
2023/07/09 11:46:12;;;;;;;4.28;3.97;;;;;;;;;;6185929;23;20237;-84
2023/07/09 11:48:42;;;;;;;4.90;4.50;;;;;;;;;;6186173;23;20165;-85
2023/07/09 11:51:17;;;;;;;4.53;4.20;;;;;;;;;;6186026;23;20205;-85
2023/07/09 11:53:48;;;;;;;4.25;3.95;;;;;;;;;;6185968;23;20158;-85
2023/07/09 11:56:20;;;;;;;4.50;4.20;;;;;;;;;;6184959;23;20276;-84
2023/07/09 11:58:52;;;;;;;4.68;4.25;;;;;;;;;;6185272;23;20236;-85
2023/07/09 12:01:22;;;;;;;5.32;4.70;;;;;;;;;;6185340;23;20200;-85
2023/07/09 12:03:50;;;;;;;4.00;3.70;;;;;;;;;;6185755;23;20158;-85
2023/07/09 12:06:21;;;;;;;4.20;3.85;;;;;;;;;;6185610;23;20178;-84
2023/07/09 12:08:51;;;;;;;4.70;4.25;;;;;;;;;;6186040;23;20241;-85
2023/07/09 12:11:23;;;;;;;9.00;4.43;;;;;;;;;;6185330;23;20523;-86
2023/07/09 12:13:51;;;;;;;4.25;3.95;;;;;;;;;;6185422;23;20158;-85
2023/07/09 12:16:28;;;;;;;4.45;4.05;;;;;;;;;;6185576;23;20233;-85
2023/07/09 12:18:56;;;;;;;4.38;3.97;;;;;;;;;;6185512;23;20244;-85
2023/07/09 12:21:24;;;;;;;4.38;3.97;;;;;;;;;;6186148;23;20254;-85
2023/07/09 12:23:53;;;;;;;6.30;4.15;;;;;;;;;;6185743;23;20260;-85
2023/07/09 12:26:22;;;;;;;3.50;3.20;;;;;;;;;;6186101;23;20181;-85
2023/07/09 12:28:53;;;;;;;4.45;3.95;;;;;;;;;;6185707;23;20242;-85
2023/07/09 12:31:27;;;;;;;3.97;3.67;;;;;;;;;;6185995;23;20236;-84
2023/07/09 12:33:57;;;;;;;4.63;3.88;;;;;;;;;;6185594;23;20212;-85
2023/07/09 12:36:25;;;;;;;4.30;4.00;;;;;;;;;;6185519;23;20198;-84
2023/07/09 12:38:56;;;;;;;5.82;5.03;;;;;;;;;;6185858;23;20180;-84
2023/07/09 12:41:28;;;;;;;4.57;4.18;;;;;;;;;;6185413;23;20277;-85
2023/07/09 12:43:56;;;;;;;4.55;4.15;;;;;;;;;;6186240;23;20245;-84
2023/07/09 12:46:24;;;;;;;5.35;4.95;;;;;;;;;;6185916;23;20272;-84
2023/07/09 12:48:52;;;;;;;4.90;4.57;;;;;;;;;;6185024;23;20181;-85
2023/07/09 12:51:24;;;;;;;5.13;4.57;;;;;;;;;;6185346;23;20229;-84
2023/07/09 12:54:03;;;;;;;4.07;3.78;;;;;;;;;;6185212;23;20193;-85
2023/07/09 12:56:36;;;;;;;4.68;4.28;;;;;;;;;;6185120;23;20252;-85
2023/07/09 12:59:05;;;;;;;6.13;5.40;;;;;;;;;;6185606;23;20162;-85
2023/07/09 13:01:36;;;;;;;4.93;4.53;;;;;;;;;;6185411;23;20594;-86
2023/07/09 13:04:03;;;;;;;4.97;4.57;;;;;;;;;;6185849;23;20182;-85
2023/07/09 13:06:36;;;;;;;5.43;4.80;;;;;;;;;;6185448;23;20170;-85
2023/07/09 13:09:17;;;;;;;6.30;4.90;;;;;;;;;;6184582;23;20180;-85
2023/07/09 13:11:47;;;;;;;4.03;3.70;;;;;;;;;;6185491;23;20653;-86
2023/07/09 13:14:21;;;;;;;5.10;4.47;;;;;;;;;;6185387;23;20178;-84
2023/07/09 13:16:49;;;;;;;4.90;4.50;;;;;;;;;;6185613;23;20229;-84
2023/07/09 13:19:17;;;;;;;4.30;3.90;;;;;;;;;;6184850;23;20206;-85
2023/07/09 13:21:46;;;;;;;4.80;4.20;;;;;;;;;;6185108;23;20200;-84
2023/07/09 13:24:21;;;;;;;4.78;4.38;;;;;;;;;;6185359;23;20181;-85
2023/07/09 13:26:51;;;;;;;6.07;5.57;;;;;;;;;;6185885;23;20617;-86
2023/07/09 13:29:21;;;;;;;5.35;4.95;;;;;;;;;;6185475;23;20481;-85
2023/07/09 13:31:49;;;;;;;5.38;4.90;;;;;;;;;;6185703;23;20198;-86
2023/07/09 13:34:23;;;;;;;5.05;4.65;;;;;;;;;;6184676;23;20498;-86
2023/07/09 13:36:51;;;;;;;4.53;4.13;;;;;;;;;;6185238;23;20208;-86
2023/07/09 13:39:19;;;;;;;4.70;4.10;;;;;;;;;;6184882;23;20257;-85
2023/07/09 13:41:48;;;;;;;3.78;3.58;;;;;;;;;;6187065;23;20225;-87
2023/07/09 13:44:19;;;;;;;4.65;4.35;;;;;;;;;;6187259;23;20256;-86
2023/07/09 13:46:48;;;;;;;4.30;4.00;;;;;;;;;;6186449;23;20500;-85
2023/07/09 13:49:18;;;;;;;4.60;4.20;;;;;;;;;;6186927;23;20253;-85
2023/07/09 13:51:47;;;;;;;4.25;3.95;;;;;;;;;;6187423;23;20272;-84
2023/07/09 13:54:18;;;;;;;4.45;4.05;;;;;;;;;;6187393;23;20282;-85
2023/07/09 13:56:46;;;;;;;3.40;3.10;;;;;;;;;;6187448;23;20697;-86
2023/07/09 13:59:19;;;;;;;4.78;4.22;;;;;;;;;;6187701;23;20257;-85
2023/07/09 14:01:47;;;;;;;5.35;4.85;;;;;;;;;;6187639;23;20595;-86
2023/07/09 14:04:17;;;;;;;4.60;4.22;;;;;;;;;;6187904;23;20261;-86
2023/07/09 14:06:46;;;;;;;3.80;3.50;;;;;;;;;;6187769;23;20182;-86
2023/07/09 14:09:14;;;;;;;3.97;3.55;;;;;;;;;;6187101;23;20673;-87
2023/07/09 14:11:46;;;;;;;3.22;3.03;;;;;;;;;;6188138;23;20590;-86
2023/07/09 14:14:20;;;;;;;5.68;3.97;;;;;;;;;;6187761;23;20158;-84
2023/07/09 14:16:49;;;;;;;4.35;3.60;;;;;;;;;;6187424;23;20233;-85
2023/07/09 14:19:22;;;;;;;3.70;3.40;;;;;;;;;;6187481;23;20210;-85
2023/07/09 14:21:50;;;;;;;3.58;3.38;;;;;;;;;;6188533;23;20198;-85
2023/07/09 14:24:23;;;;;;;2.83;2.63;;;;;;;;;;6189244;23;20256;-85
2023/07/09 14:26:52;;;;;;;3.90;3.60;;;;;;;;;;6189128;23;20233;-85
2023/07/09 14:29:22;;;;;;;4.20;3.80;;;;;;;;;;6189222;23;20248;-85
2023/07/09 14:31:50;;;;;;;4.65;4.05;;;;;;;;;;6188895;23;20270;-84
2023/07/09 14:34:24;;;;;;;4.35;4.05;;;;;;;;;;6191119;23;20185;-84
2023/07/09 14:36:54;;;;;;;4.30;4.00;;;;;;;;;;6190914;23;20265;-86
2023/07/09 14:39:22;;;;;;;4.25;3.95;;;;;;;;;;6189212;23;20193;-84
2023/07/09 14:41:50;;;;;;;4.38;3.97;;;;;;;;;;6189445;23;20248;-85
2023/07/09 14:44:28;;;;;;;3.75;3.45;;;;;;;;;;6189239;23;20229;-84
2023/07/09 14:46:58;;;;;;;4.00;3.60;;;;;;;;;;6189895;23;20195;-84
2023/07/09 14:49:26;;;;;;;4.05;3.65;;;;;;;;;;6190934;23;20217;-84
2023/07/09 14:51:54;;;;;;;3.42;3.13;;;;;;;;;;6188994;23;20193;-84
2023/07/09 14:54:23;;;;;;;3.50;3.25;;;;;;;;;;6188285;23;20188;-84
2023/07/09 14:56:51;;;;;;;3.40;3.20;;;;;;;;;;6188079;23;20575;-85
2023/07/09 14:59:19;;;;;;;5.97;3.80;;;;;;;;;;6188460;23;20233;-85